sensor_id;sensor_type;location;lat;lon;timestamp;P1;durP1;ratioP1;P2;durP2;ratioP2
80253;SDS011;69563;37.974;23.708;2023-05-07T00:00:42;4.00;;;2.80;;
80253;SDS011;69563;37.974;23.708;2023-05-07T00:03:08;4.18;;;3.00;;
80253;SDS011;69563;37.974;23.708;2023-05-07T00:05:34;5.03;;;2.90;;
80253;SDS011;69563;37.974;23.708;2023-05-07T00:08:00;4.20;;;2.97;;
80253;SDS011;69563;37.974;23.708;2023-05-07T00:10:26;4.30;;;2.90;;
80253;SDS011;69563;37.974;23.708;2023-05-07T00:12:51;4.35;;;3.00;;
80253;SDS011;69563;37.974;23.708;2023-05-07T00:15:17;4.63;;;3.10;;
80253;SDS011;69563;37.974;23.708;2023-05-07T00:17:43;4.47;;;2.83;;
80253;SDS011;69563;37.974;23.708;2023-05-07T00:20:08;4.07;;;3.10;;
80253;SDS011;69563;37.974;23.708;2023-05-07T00:22:34;4.20;;;2.78;;
80253;SDS011;69563;37.974;23.708;2023-05-07T00:25:00;5.07;;;3.15;;
80253;SDS011;69563;37.974;23.708;2023-05-07T00:27:26;4.57;;;2.92;;
80253;SDS011;69563;37.974;23.708;2023-05-07T00:29:52;4.72;;;2.97;;
80253;SDS011;69563;37.974;23.708;2023-05-07T00:32:17;4.50;;;2.80;;
80253;SDS011;69563;37.974;23.708;2023-05-07T00:34:43;5.22;;;3.15;;
80253;SDS011;69563;37.974;23.708;2023-05-07T00:37:09;4.20;;;2.83;;
80253;SDS011;69563;37.974;23.708;2023-05-07T00:39:37;4.50;;;3.00;;
80253;SDS011;69563;37.974;23.708;2023-05-07T00:42:02;4.68;;;3.08;;
80253;SDS011;69563;37.974;23.708;2023-05-07T00:44:28;4.63;;;2.97;;
80253;SDS011;69563;37.974;23.708;2023-05-07T00:46:55;4.55;;;3.03;;
80253;SDS011;69563;37.974;23.708;2023-05-07T00:49:28;4.93;;;3.33;;
80253;SDS011;69563;37.974;23.708;2023-05-07T00:52:09;5.13;;;3.03;;
80253;SDS011;69563;37.974;23.708;2023-05-07T00:54:37;4.38;;;3.00;;
80253;SDS011;69563;37.974;23.708;2023-05-07T00:57:05;5.15;;;3.20;;
80253;SDS011;69563;37.974;23.708;2023-05-07T00:59:31;4.47;;;2.90;;
80253;SDS011;69563;37.974;23.708;2023-05-07T01:01:58;3.95;;;2.95;;
80253;SDS011;69563;37.974;23.708;2023-05-07T01:04:23;5.30;;;3.20;;
80253;SDS011;69563;37.974;23.708;2023-05-07T01:06:49;5.07;;;3.05;;
80253;SDS011;69563;37.974;23.708;2023-05-07T01:09:16;4.03;;;2.95;;
80253;SDS011;69563;37.974;23.708;2023-05-07T01:11:42;5.55;;;2.85;;
80253;SDS011;69563;37.974;23.708;2023-05-07T01:14:09;4.50;;;2.92;;
80253;SDS011;69563;37.974;23.708;2023-05-07T01:16:36;4.50;;;2.80;;
80253;SDS011;69563;37.974;23.708;2023-05-07T01:19:02;4.97;;;3.22;;
80253;SDS011;69563;37.974;23.708;2023-05-07T01:21:29;4.63;;;3.05;;
80253;SDS011;69563;37.974;23.708;2023-05-07T01:23:59;4.82;;;3.00;;
80253;SDS011;69563;37.974;23.708;2023-05-07T01:26:25;4.57;;;3.10;;
80253;SDS011;69563;37.974;23.708;2023-05-07T01:28:50;5.00;;;3.05;;
80253;SDS011;69563;37.974;23.708;2023-05-07T01:31:16;4.30;;;3.13;;
80253;SDS011;69563;37.974;23.708;2023-05-07T01:33:42;4.88;;;3.28;;
80253;SDS011;69563;37.974;23.708;2023-05-07T01:36:11;7.13;;;3.17;;
80253;SDS011;69563;37.974;23.708;2023-05-07T01:38:38;4.70;;;3.00;;
80253;SDS011;69563;37.974;23.708;2023-05-07T01:41:06;4.65;;;3.08;;
80253;SDS011;69563;37.974;23.708;2023-05-07T01:43:32;4.32;;;2.78;;
80253;SDS011;69563;37.974;23.708;2023-05-07T01:45:58;4.45;;;2.97;;
80253;SDS011;69563;37.974;23.708;2023-05-07T01:48:25;4.75;;;3.10;;
80253;SDS011;69563;37.974;23.708;2023-05-07T01:50:51;5.47;;;3.17;;
80253;SDS011;69563;37.974;23.708;2023-05-07T01:53:17;5.38;;;3.20;;
80253;SDS011;69563;37.974;23.708;2023-05-07T01:55:43;4.38;;;3.00;;
80253;SDS011;69563;37.974;23.708;2023-05-07T01:58:08;4.78;;;3.17;;
80253;SDS011;69563;37.974;23.708;2023-05-07T02:00:41;5.15;;;3.20;;
80253;SDS011;69563;37.974;23.708;2023-05-07T02:03:07;4.35;;;3.10;;
80253;SDS011;69563;37.974;23.708;2023-05-07T02:05:32;5.00;;;3.08;;
80253;SDS011;69563;37.974;23.708;2023-05-07T02:07:59;4.93;;;3.10;;
80253;SDS011;69563;37.974;23.708;2023-05-07T02:10:25;4.80;;;3.08;;
80253;SDS011;69563;37.974;23.708;2023-05-07T02:12:51;5.15;;;3.20;;
80253;SDS011;69563;37.974;23.708;2023-05-07T02:15:16;4.57;;;3.10;;
80253;SDS011;69563;37.974;23.708;2023-05-07T02:17:58;5.03;;;3.10;;
80253;SDS011;69563;37.974;23.708;2023-05-07T02:20:24;4.70;;;2.80;;
80253;SDS011;69563;37.974;23.708;2023-05-07T02:22:50;4.50;;;3.10;;
80253;SDS011;69563;37.974;23.708;2023-05-07T02:25:19;4.38;;;2.88;;
80253;SDS011;69563;37.974;23.708;2023-05-07T02:27:45;4.97;;;3.30;;
80253;SDS011;69563;37.974;23.708;2023-05-07T02:30:10;4.50;;;3.03;;
80253;SDS011;69563;37.974;23.708;2023-05-07T02:32:37;4.97;;;3.15;;
80253;SDS011;69563;37.974;23.708;2023-05-07T02:35:03;4.93;;;3.10;;
80253;SDS011;69563;37.974;23.708;2023-05-07T02:37:29;4.75;;;3.22;;
80253;SDS011;69563;37.974;23.708;2023-05-07T02:39:55;4.80;;;3.30;;
80253;SDS011;69563;37.974;23.708;2023-05-07T02:42:21;5.15;;;3.40;;
80253;SDS011;69563;37.974;23.708;2023-05-07T02:44:46;5.22;;;3.10;;
80253;SDS011;69563;37.974;23.708;2023-05-07T02:47:13;4.70;;;3.05;;
80253;SDS011;69563;37.974;23.708;2023-05-07T02:49:40;4.38;;;2.92;;
80253;SDS011;69563;37.974;23.708;2023-05-07T02:52:06;4.05;;;2.97;;
80253;SDS011;69563;37.974;23.708;2023-05-07T02:54:31;4.63;;;3.10;;
80253;SDS011;69563;37.974;23.708;2023-05-07T02:56:57;4.97;;;2.97;;
80253;SDS011;69563;37.974;23.708;2023-05-07T02:59:26;4.28;;;2.78;;
80253;SDS011;69563;37.974;23.708;2023-05-07T03:01:51;4.78;;;2.97;;
80253;SDS011;69563;37.974;23.708;2023-05-07T03:04:17;4.78;;;2.80;;
80253;SDS011;69563;37.974;23.708;2023-05-07T03:06:43;4.85;;;2.78;;
80253;SDS011;69563;37.974;23.708;2023-05-07T03:09:08;4.45;;;3.08;;
80253;SDS011;69563;37.974;23.708;2023-05-07T03:11:34;4.88;;;3.00;;
80253;SDS011;69563;37.974;23.708;2023-05-07T03:14:03;5.65;;;2.75;;
80253;SDS011;69563;37.974;23.708;2023-05-07T03:16:29;6.05;;;3.10;;
80253;SDS011;69563;37.974;23.708;2023-05-07T03:18:55;5.10;;;3.20;;
80253;SDS011;69563;37.974;23.708;2023-05-07T03:21:20;4.90;;;2.97;;
80253;SDS011;69563;37.974;23.708;2023-05-07T03:23:46;4.68;;;3.03;;
80253;SDS011;69563;37.974;23.708;2023-05-07T03:26:12;4.38;;;2.83;;
80253;SDS011;69563;37.974;23.708;2023-05-07T03:28:38;4.25;;;2.55;;
80253;SDS011;69563;37.974;23.708;2023-05-07T03:31:04;4.85;;;3.00;;
80253;SDS011;69563;37.974;23.708;2023-05-07T03:33:32;6.32;;;2.88;;
80253;SDS011;69563;37.974;23.708;2023-05-07T03:36:01;5.00;;;3.00;;
80253;SDS011;69563;37.974;23.708;2023-05-07T03:38:26;4.75;;;3.13;;
80253;SDS011;69563;37.974;23.708;2023-05-07T03:40:52;5.25;;;2.97;;
80253;SDS011;69563;37.974;23.708;2023-05-07T03:43:18;4.20;;;2.67;;
80253;SDS011;69563;37.974;23.708;2023-05-07T03:45:47;4.22;;;2.83;;
80253;SDS011;69563;37.974;23.708;2023-05-07T03:48:12;4.80;;;2.92;;
80253;SDS011;69563;37.974;23.708;2023-05-07T03:50:38;4.43;;;2.78;;
80253;SDS011;69563;37.974;23.708;2023-05-07T03:53:04;3.60;;;2.53;;
80253;SDS011;69563;37.974;23.708;2023-05-07T03:55:30;4.57;;;2.88;;
80253;SDS011;69563;37.974;23.708;2023-05-07T03:57:57;4.30;;;2.55;;
80253;SDS011;69563;37.974;23.708;2023-05-07T04:00:23;4.82;;;2.90;;
80253;SDS011;69563;37.974;23.708;2023-05-07T04:02:48;4.50;;;2.80;;
80253;SDS011;69563;37.974;23.708;2023-05-07T04:05:14;6.53;;;3.05;;
80253;SDS011;69563;37.974;23.708;2023-05-07T04:07:42;4.60;;;2.80;;
80253;SDS011;69563;37.974;23.708;2023-05-07T04:10:08;4.68;;;2.90;;
80253;SDS011;69563;37.974;23.708;2023-05-07T04:12:34;5.05;;;2.70;;
80253;SDS011;69563;37.974;23.708;2023-05-07T04:15:01;4.65;;;2.80;;
80253;SDS011;69563;37.974;23.708;2023-05-07T04:17:26;4.65;;;2.83;;
80253;SDS011;69563;37.974;23.708;2023-05-07T04:19:52;4.25;;;2.85;;
80253;SDS011;69563;37.974;23.708;2023-05-07T04:22:18;5.57;;;2.47;;
80253;SDS011;69563;37.974;23.708;2023-05-07T04:24:43;4.47;;;2.60;;
80253;SDS011;69563;37.974;23.708;2023-05-07T04:27:09;5.38;;;2.47;;
80253;SDS011;69563;37.974;23.708;2023-05-07T04:29:36;4.45;;;2.55;;
80253;SDS011;69563;37.974;23.708;2023-05-07T04:32:03;3.67;;;2.35;;
80253;SDS011;69563;37.974;23.708;2023-05-07T04:34:29;4.22;;;2.35;;
80253;SDS011;69563;37.974;23.708;2023-05-07T04:36:57;4.95;;;2.50;;
80253;SDS011;69563;37.974;23.708;2023-05-07T04:39:23;5.00;;;2.60;;
80253;SDS011;69563;37.974;23.708;2023-05-07T04:41:49;4.32;;;2.50;;
80253;SDS011;69563;37.974;23.708;2023-05-07T04:44:16;4.78;;;2.58;;
80253;SDS011;69563;37.974;23.708;2023-05-07T04:46:42;4.05;;;2.50;;
80253;SDS011;69563;37.974;23.708;2023-05-07T04:49:08;4.95;;;2.70;;
80253;SDS011;69563;37.974;23.708;2023-05-07T04:51:33;4.80;;;2.47;;
80253;SDS011;69563;37.974;23.708;2023-05-07T04:54:00;4.90;;;2.53;;
80253;SDS011;69563;37.974;23.708;2023-05-07T04:56:27;5.22;;;2.55;;
80253;SDS011;69563;37.974;23.708;2023-05-07T04:58:57;3.88;;;2.30;;
80253;SDS011;69563;37.974;23.708;2023-05-07T05:01:23;5.45;;;2.50;;
80253;SDS011;69563;37.974;23.708;2023-05-07T05:03:50;3.90;;;2.33;;
80253;SDS011;69563;37.974;23.708;2023-05-07T05:06:16;3.95;;;2.22;;
80253;SDS011;69563;37.974;23.708;2023-05-07T05:08:41;4.63;;;2.53;;
80253;SDS011;69563;37.974;23.708;2023-05-07T05:11:07;5.05;;;2.25;;
80253;SDS011;69563;37.974;23.708;2023-05-07T05:13:33;4.20;;;2.33;;
80253;SDS011;69563;37.974;23.708;2023-05-07T05:16:01;4.10;;;2.03;;
80253;SDS011;69563;37.974;23.708;2023-05-07T05:18:27;3.92;;;2.20;;
80253;SDS011;69563;37.974;23.708;2023-05-07T05:20:53;3.85;;;2.22;;
80253;SDS011;69563;37.974;23.708;2023-05-07T05:23:19;3.80;;;2.20;;
80253;SDS011;69563;37.974;23.708;2023-05-07T05:25:45;4.80;;;2.15;;
80253;SDS011;69563;37.974;23.708;2023-05-07T05:28:10;3.90;;;2.28;;
80253;SDS011;69563;37.974;23.708;2023-05-07T05:30:36;4.35;;;2.30;;
80253;SDS011;69563;37.974;23.708;2023-05-07T05:33:02;4.72;;;2.30;;
80253;SDS011;69563;37.974;23.708;2023-05-07T05:35:29;4.13;;;2.20;;
80253;SDS011;69563;37.974;23.708;2023-05-07T05:37:54;6.35;;;2.30;;
80253;SDS011;69563;37.974;23.708;2023-05-07T05:40:20;4.25;;;2.30;;
80253;SDS011;69563;37.974;23.708;2023-05-07T05:42:46;3.97;;;2.15;;
80253;SDS011;69563;37.974;23.708;2023-05-07T05:45:11;4.68;;;2.30;;
80253;SDS011;69563;37.974;23.708;2023-05-07T05:47:37;4.30;;;2.28;;
80253;SDS011;69563;37.974;23.708;2023-05-07T05:50:04;3.63;;;2.10;;
80253;SDS011;69563;37.974;23.708;2023-05-07T05:52:31;4.40;;;2.22;;
80253;SDS011;69563;37.974;23.708;2023-05-07T05:54:57;4.70;;;2.17;;
80253;SDS011;69563;37.974;23.708;2023-05-07T05:57:23;3.58;;;2.00;;
80253;SDS011;69563;37.974;23.708;2023-05-07T05:59:48;3.20;;;1.90;;
80253;SDS011;69563;37.974;23.708;2023-05-07T06:02:14;3.28;;;2.20;;
80253;SDS011;69563;37.974;23.708;2023-05-07T06:04:42;3.67;;;2.00;;
80253;SDS011;69563;37.974;23.708;2023-05-07T06:07:08;3.30;;;2.00;;
80253;SDS011;69563;37.974;23.708;2023-05-07T06:09:34;3.15;;;1.90;;
80253;SDS011;69563;37.974;23.708;2023-05-07T06:11:59;4.97;;;2.10;;
80253;SDS011;69563;37.974;23.708;2023-05-07T06:14:25;3.30;;;2.20;;
80253;SDS011;69563;37.974;23.708;2023-05-07T06:16:51;4.72;;;2.00;;
80253;SDS011;69563;37.974;23.708;2023-05-07T06:19:17;3.00;;;1.85;;
80253;SDS011;69563;37.974;23.708;2023-05-07T06:21:48;3.20;;;2.10;;
80253;SDS011;69563;37.974;23.708;2023-05-07T06:24:13;3.47;;;2.20;;
80253;SDS011;69563;37.974;23.708;2023-05-07T06:26:39;3.65;;;2.10;;
80253;SDS011;69563;37.974;23.708;2023-05-07T06:29:05;3.35;;;2.10;;
80253;SDS011;69563;37.974;23.708;2023-05-07T06:31:31;3.20;;;2.10;;
80253;SDS011;69563;37.974;23.708;2023-05-07T06:33:57;4.63;;;1.90;;
80253;SDS011;69563;37.974;23.708;2023-05-07T06:36:24;2.95;;;1.77;;
80253;SDS011;69563;37.974;23.708;2023-05-07T06:38:50;4.20;;;2.08;;
80253;SDS011;69563;37.974;23.708;2023-05-07T06:41:16;2.55;;;1.90;;
80253;SDS011;69563;37.974;23.708;2023-05-07T06:43:41;3.78;;;2.00;;
80253;SDS011;69563;37.974;23.708;2023-05-07T06:46:07;4.60;;;2.13;;
80253;SDS011;69563;37.974;23.708;2023-05-07T06:48:33;3.72;;;2.05;;
80253;SDS011;69563;37.974;23.708;2023-05-07T06:50:58;4.47;;;2.00;;
80253;SDS011;69563;37.974;23.708;2023-05-07T06:53:24;3.22;;;1.85;;
80253;SDS011;69563;37.974;23.708;2023-05-07T06:55:50;4.32;;;2.10;;
80253;SDS011;69563;37.974;23.708;2023-05-07T06:58:17;3.10;;;1.80;;
80253;SDS011;69563;37.974;23.708;2023-05-07T07:00:42;3.55;;;1.88;;
80253;SDS011;69563;37.974;23.708;2023-05-07T07:03:08;4.68;;;1.90;;
80253;SDS011;69563;37.974;23.708;2023-05-07T07:05:35;4.07;;;2.00;;
80253;SDS011;69563;37.974;23.708;2023-05-07T07:08:00;3.40;;;2.00;;
80253;SDS011;69563;37.974;23.708;2023-05-07T07:10:26;4.45;;;2.00;;
80253;SDS011;69563;37.974;23.708;2023-05-07T07:12:52;4.18;;;1.90;;
80253;SDS011;69563;37.974;23.708;2023-05-07T07:15:19;3.10;;;1.98;;
80253;SDS011;69563;37.974;23.708;2023-05-07T07:17:50;3.75;;;1.67;;
80253;SDS011;69563;37.974;23.708;2023-05-07T07:20:16;4.13;;;1.70;;
80253;SDS011;69563;37.974;23.708;2023-05-07T07:22:42;3.50;;;1.92;;
80253;SDS011;69563;37.974;23.708;2023-05-07T07:25:07;3.80;;;1.75;;
80253;SDS011;69563;37.974;23.708;2023-05-07T07:27:34;5.40;;;1.98;;
80253;SDS011;69563;37.974;23.708;2023-05-07T07:30:01;3.08;;;1.60;;
80253;SDS011;69563;37.974;23.708;2023-05-07T07:32:26;3.35;;;1.70;;
80253;SDS011;69563;37.974;23.708;2023-05-07T07:34:52;4.00;;;2.15;;
80253;SDS011;69563;37.974;23.708;2023-05-07T07:37:18;3.17;;;1.70;;
80253;SDS011;69563;37.974;23.708;2023-05-07T07:39:43;3.42;;;1.70;;
80253;SDS011;69563;37.974;23.708;2023-05-07T07:42:10;3.83;;;1.80;;
80253;SDS011;69563;37.974;23.708;2023-05-07T07:44:35;3.47;;;1.90;;
80253;SDS011;69563;37.974;23.708;2023-05-07T07:47:01;4.60;;;1.83;;
80253;SDS011;69563;37.974;23.708;2023-05-07T07:49:27;3.28;;;1.80;;
80253;SDS011;69563;37.974;23.708;2023-05-07T07:51:52;3.83;;;1.80;;
80253;SDS011;69563;37.974;23.708;2023-05-07T07:54:18;3.85;;;1.80;;
80253;SDS011;69563;37.974;23.708;2023-05-07T07:56:44;4.00;;;1.88;;
80253;SDS011;69563;37.974;23.708;2023-05-07T07:59:10;3.88;;;1.90;;
80253;SDS011;69563;37.974;23.708;2023-05-07T08:01:35;4.20;;;1.83;;
80253;SDS011;69563;37.974;23.708;2023-05-07T08:04:01;3.08;;;1.63;;
80253;SDS011;69563;37.974;23.708;2023-05-07T08:06:28;2.55;;;1.67;;
80253;SDS011;69563;37.974;23.708;2023-05-07T08:08:54;3.30;;;2.05;;
80253;SDS011;69563;37.974;23.708;2023-05-07T08:11:20;3.78;;;1.83;;
80253;SDS011;69563;37.974;23.708;2023-05-07T08:13:47;2.88;;;1.88;;
80253;SDS011;69563;37.974;23.708;2023-05-07T08:16:13;3.67;;;1.95;;
80253;SDS011;69563;37.974;23.708;2023-05-07T08:18:39;4.28;;;1.90;;
80253;SDS011;69563;37.974;23.708;2023-05-07T08:21:05;4.40;;;1.80;;
80253;SDS011;69563;37.974;23.708;2023-05-07T08:23:30;2.65;;;1.75;;
80253;SDS011;69563;37.974;23.708;2023-05-07T08:25:56;3.45;;;1.70;;
80253;SDS011;69563;37.974;23.708;2023-05-07T08:28:22;3.63;;;1.80;;
80253;SDS011;69563;37.974;23.708;2023-05-07T08:30:49;4.15;;;1.90;;
80253;SDS011;69563;37.974;23.708;2023-05-07T08:33:15;4.03;;;1.88;;
80253;SDS011;69563;37.974;23.708;2023-05-07T08:35:41;2.58;;;1.70;;
80253;SDS011;69563;37.974;23.708;2023-05-07T08:38:07;4.07;;;1.80;;
80253;SDS011;69563;37.974;23.708;2023-05-07T08:40:36;2.85;;;1.73;;
80253;SDS011;69563;37.974;23.708;2023-05-07T08:43:05;3.75;;;1.88;;
80253;SDS011;69563;37.974;23.708;2023-05-07T08:45:32;3.90;;;1.85;;
80253;SDS011;69563;37.974;23.708;2023-05-07T08:48:01;3.33;;;1.73;;
80253;SDS011;69563;37.974;23.708;2023-05-07T08:50:30;4.25;;;1.88;;
80253;SDS011;69563;37.974;23.708;2023-05-07T08:52:56;4.15;;;1.73;;
80253;SDS011;69563;37.974;23.708;2023-05-07T08:55:23;3.80;;;1.90;;
80253;SDS011;69563;37.974;23.708;2023-05-07T08:57:49;4.00;;;1.77;;
80253;SDS011;69563;37.974;23.708;2023-05-07T09:00:17;3.75;;;1.88;;
80253;SDS011;69563;37.974;23.708;2023-05-07T09:02:43;5.47;;;2.10;;
80253;SDS011;69563;37.974;23.708;2023-05-07T09:05:09;4.13;;;1.92;;
80253;SDS011;69563;37.974;23.708;2023-05-07T09:07:36;3.33;;;1.75;;
80253;SDS011;69563;37.974;23.708;2023-05-07T09:10:02;2.97;;;1.50;;
80253;SDS011;69563;37.974;23.708;2023-05-07T09:12:29;4.38;;;1.83;;
80253;SDS011;69563;37.974;23.708;2023-05-07T09:14:55;3.05;;;1.90;;
80253;SDS011;69563;37.974;23.708;2023-05-07T09:17:20;3.50;;;1.80;;
80253;SDS011;69563;37.974;23.708;2023-05-07T09:19:47;4.30;;;1.90;;
80253;SDS011;69563;37.974;23.708;2023-05-07T09:22:12;3.55;;;1.85;;
80253;SDS011;69563;37.974;23.708;2023-05-07T09:24:39;3.30;;;1.92;;
80253;SDS011;69563;37.974;23.708;2023-05-07T09:27:05;3.50;;;1.80;;
80253;SDS011;69563;37.974;23.708;2023-05-07T09:29:31;3.53;;;1.80;;
80253;SDS011;69563;37.974;23.708;2023-05-07T09:32:01;3.13;;;1.80;;
80253;SDS011;69563;37.974;23.708;2023-05-07T09:34:28;3.60;;;2.00;;
80253;SDS011;69563;37.974;23.708;2023-05-07T09:36:54;3.15;;;1.90;;
80253;SDS011;69563;37.974;23.708;2023-05-07T09:39:21;3.47;;;1.83;;
80253;SDS011;69563;37.974;23.708;2023-05-07T09:41:48;2.83;;;1.73;;
80253;SDS011;69563;37.974;23.708;2023-05-07T09:44:14;3.80;;;2.10;;
80253;SDS011;69563;37.974;23.708;2023-05-07T09:46:42;3.08;;;1.70;;
80253;SDS011;69563;37.974;23.708;2023-05-07T09:49:16;2.30;;;1.60;;
80253;SDS011;69563;37.974;23.708;2023-05-07T09:51:49;3.50;;;1.70;;
80253;SDS011;69563;37.974;23.708;2023-05-07T09:54:17;3.67;;;1.60;;
80253;SDS011;69563;37.974;23.708;2023-05-07T09:56:44;4.28;;;2.05;;
80253;SDS011;69563;37.974;23.708;2023-05-07T09:59:11;4.93;;;1.70;;
80253;SDS011;69563;37.974;23.708;2023-05-07T10:01:39;4.20;;;1.80;;
80253;SDS011;69563;37.974;23.708;2023-05-07T10:04:07;5.07;;;1.80;;
80253;SDS011;69563;37.974;23.708;2023-05-07T10:06:34;4.28;;;1.80;;
80253;SDS011;69563;37.974;23.708;2023-05-07T10:09:00;3.42;;;1.80;;
80253;SDS011;69563;37.974;23.708;2023-05-07T10:11:27;3.35;;;1.90;;
80253;SDS011;69563;37.974;23.708;2023-05-07T10:14:12;3.28;;;1.70;;
80253;SDS011;69563;37.974;23.708;2023-05-07T10:16:39;3.13;;;1.75;;
80253;SDS011;69563;37.974;23.708;2023-05-07T10:19:06;3.92;;;1.90;;
80253;SDS011;69563;37.974;23.708;2023-05-07T10:21:38;2.88;;;1.75;;
80253;SDS011;69563;37.974;23.708;2023-05-07T10:24:10;4.32;;;2.20;;
80253;SDS011;69563;37.974;23.708;2023-05-07T10:26:52;4.03;;;1.92;;
80253;SDS011;69563;37.974;23.708;2023-05-07T10:29:21;4.10;;;1.92;;
80253;SDS011;69563;37.974;23.708;2023-05-07T10:35:25;3.40;;;1.80;;
80253;SDS011;69563;37.974;23.708;2023-05-07T10:37:54;2.85;;;1.80;;
80253;SDS011;69563;37.974;23.708;2023-05-07T10:40:20;3.33;;;1.90;;
80253;SDS011;69563;37.974;23.708;2023-05-07T10:43:02;3.25;;;1.80;;
80253;SDS011;69563;37.974;23.708;2023-05-07T10:45:32;3.63;;;1.80;;
80253;SDS011;69563;37.974;23.708;2023-05-07T10:48:13;2.90;;;1.88;;
80253;SDS011;69563;37.974;23.708;2023-05-07T10:50:42;3.47;;;1.90;;
80253;SDS011;69563;37.974;23.708;2023-05-07T10:55:42;3.85;;;1.90;;
80253;SDS011;69563;37.974;23.708;2023-05-07T11:03:13;3.75;;;1.90;;
80253;SDS011;69563;37.974;23.708;2023-05-07T11:05:40;4.95;;;2.10;;
80253;SDS011;69563;37.974;23.708;2023-05-07T11:08:07;3.38;;;1.85;;
80253;SDS011;69563;37.974;23.708;2023-05-07T11:18:48;5.13;;;2.08;;
80253;SDS011;69563;37.974;23.708;2023-05-07T11:21:36;2.95;;;1.73;;
80253;SDS011;69563;37.974;23.708;2023-05-07T11:24:02;4.25;;;1.92;;
80253;SDS011;69563;37.974;23.708;2023-05-07T11:26:40;4.20;;;2.10;;
80253;SDS011;69563;37.974;23.708;2023-05-07T11:29:11;4.43;;;1.95;;
80253;SDS011;69563;37.974;23.708;2023-05-07T11:31:38;3.63;;;2.15;;
80253;SDS011;69563;37.974;23.708;2023-05-07T11:34:05;3.50;;;2.00;;
80253;SDS011;69563;37.974;23.708;2023-05-07T11:36:32;5.07;;;2.17;;
80253;SDS011;69563;37.974;23.708;2023-05-07T11:38:58;3.17;;;2.08;;
80253;SDS011;69563;37.974;23.708;2023-05-07T11:41:33;3.60;;;2.10;;
80253;SDS011;69563;37.974;23.708;2023-05-07T11:44:04;4.20;;;2.00;;
80253;SDS011;69563;37.974;23.708;2023-05-07T11:46:29;4.30;;;2.00;;
80253;SDS011;69563;37.974;23.708;2023-05-07T11:48:55;3.58;;;2.10;;
80253;SDS011;69563;37.974;23.708;2023-05-07T11:51:22;5.32;;;2.10;;
80253;SDS011;69563;37.974;23.708;2023-05-07T11:53:52;4.63;;;2.40;;
80253;SDS011;69563;37.974;23.708;2023-05-07T11:56:18;3.83;;;1.83;;
80253;SDS011;69563;37.974;23.708;2023-05-07T11:58:45;3.28;;;2.13;;
80253;SDS011;69563;37.974;23.708;2023-05-07T12:01:12;4.18;;;2.40;;
80253;SDS011;69563;37.974;23.708;2023-05-07T12:03:40;4.28;;;2.28;;
80253;SDS011;69563;37.974;23.708;2023-05-07T12:06:07;3.88;;;2.03;;
80253;SDS011;69563;37.974;23.708;2023-05-07T12:08:38;3.80;;;2.13;;
80253;SDS011;69563;37.974;23.708;2023-05-07T12:11:09;2.83;;;1.90;;
80253;SDS011;69563;37.974;23.708;2023-05-07T12:13:41;3.67;;;2.00;;
80253;SDS011;69563;37.974;23.708;2023-05-07T12:16:07;4.10;;;2.00;;
80253;SDS011;69563;37.974;23.708;2023-05-07T12:18:36;2.85;;;2.00;;
80253;SDS011;69563;37.974;23.708;2023-05-07T12:21:03;4.30;;;2.33;;
80253;SDS011;69563;37.974;23.708;2023-05-07T12:23:30;4.47;;;2.28;;
80253;SDS011;69563;37.974;23.708;2023-05-07T12:25:56;4.07;;;2.17;;
80253;SDS011;69563;37.974;23.708;2023-05-07T12:28:22;3.80;;;2.00;;
80253;SDS011;69563;37.974;23.708;2023-05-07T12:30:48;3.83;;;2.20;;
80253;SDS011;69563;37.974;23.708;2023-05-07T12:33:23;4.63;;;2.20;;
80253;SDS011;69563;37.974;23.708;2023-05-07T12:35:50;4.18;;;2.00;;
80253;SDS011;69563;37.974;23.708;2023-05-07T12:38:17;3.38;;;1.98;;
80253;SDS011;69563;37.974;23.708;2023-05-07T12:40:47;4.10;;;2.20;;
80253;SDS011;69563;37.974;23.708;2023-05-07T12:43:24;3.92;;;2.17;;
80253;SDS011;69563;37.974;23.708;2023-05-07T12:46:01;4.60;;;2.38;;
80253;SDS011;69563;37.974;23.708;2023-05-07T12:48:29;4.65;;;2.22;;
80253;SDS011;69563;37.974;23.708;2023-05-07T12:50:55;2.88;;;2.03;;
80253;SDS011;69563;37.974;23.708;2023-05-07T12:53:22;3.45;;;2.20;;
80253;SDS011;69563;37.974;23.708;2023-05-07T12:55:50;3.80;;;2.20;;
80253;SDS011;69563;37.974;23.708;2023-05-07T12:58:22;3.80;;;2.33;;
80253;SDS011;69563;37.974;23.708;2023-05-07T13:00:53;3.88;;;2.22;;
80253;SDS011;69563;37.974;23.708;2023-05-07T13:03:32;3.75;;;2.15;;
80253;SDS011;69563;37.974;23.708;2023-05-07T13:06:02;3.67;;;2.15;;
80253;SDS011;69563;37.974;23.708;2023-05-07T13:08:41;4.35;;;2.10;;
80253;SDS011;69563;37.974;23.708;2023-05-07T13:11:14;3.85;;;2.10;;
80253;SDS011;69563;37.974;23.708;2023-05-07T13:13:40;3.47;;;2.17;;
80253;SDS011;69563;37.974;23.708;2023-05-07T13:16:07;5.13;;;2.33;;
80253;SDS011;69563;37.974;23.708;2023-05-07T13:18:35;3.70;;;2.20;;
80253;SDS011;69563;37.974;23.708;2023-05-07T13:21:01;4.10;;;2.30;;
80253;SDS011;69563;37.974;23.708;2023-05-07T13:23:27;3.85;;;2.05;;
80253;SDS011;69563;37.974;23.708;2023-05-07T13:25:53;4.05;;;2.20;;
80253;SDS011;69563;37.974;23.708;2023-05-07T13:28:20;3.60;;;2.28;;
80253;SDS011;69563;37.974;23.708;2023-05-07T13:30:46;3.20;;;2.00;;
80253;SDS011;69563;37.974;23.708;2023-05-07T13:33:12;3.25;;;2.25;;
80253;SDS011;69563;37.974;23.708;2023-05-07T13:35:38;3.63;;;2.30;;
80253;SDS011;69563;37.974;23.708;2023-05-07T13:38:04;4.82;;;2.10;;
80253;SDS011;69563;37.974;23.708;2023-05-07T13:40:30;4.07;;;2.30;;
80253;SDS011;69563;37.974;23.708;2023-05-07T13:42:57;3.70;;;2.15;;
80253;SDS011;69563;37.974;23.708;2023-05-07T13:45:24;3.97;;;2.17;;
80253;SDS011;69563;37.974;23.708;2023-05-07T13:47:51;3.80;;;2.22;;
80253;SDS011;69563;37.974;23.708;2023-05-07T13:50:16;4.00;;;2.33;;
80253;SDS011;69563;37.974;23.708;2023-05-07T13:52:43;3.45;;;2.20;;
80253;SDS011;69563;37.974;23.708;2023-05-07T13:55:18;3.85;;;2.17;;
80253;SDS011;69563;37.974;23.708;2023-05-07T13:57:46;3.58;;;2.20;;
80253;SDS011;69563;37.974;23.708;2023-05-07T14:00:13;3.55;;;2.17;;
80253;SDS011;69563;37.974;23.708;2023-05-07T14:02:39;3.95;;;2.10;;
80253;SDS011;69563;37.974;23.708;2023-05-07T14:05:06;3.72;;;2.30;;
80253;SDS011;69563;37.974;23.708;2023-05-07T14:07:32;3.60;;;2.10;;
80253;SDS011;69563;37.974;23.708;2023-05-07T14:10:01;4.53;;;2.05;;
80253;SDS011;69563;37.974;23.708;2023-05-07T14:12:27;3.92;;;2.22;;
80253;SDS011;69563;37.974;23.708;2023-05-07T14:14:53;4.68;;;2.20;;
80253;SDS011;69563;37.974;23.708;2023-05-07T14:17:19;3.85;;;2.33;;
80253;SDS011;69563;37.974;23.708;2023-05-07T14:19:45;4.13;;;2.10;;
80253;SDS011;69563;37.974;23.708;2023-05-07T14:22:12;3.88;;;2.38;;
80253;SDS011;69563;37.974;23.708;2023-05-07T14:24:39;5.18;;;2.42;;
80253;SDS011;69563;37.974;23.708;2023-05-07T14:27:05;3.63;;;2.03;;
80253;SDS011;69563;37.974;23.708;2023-05-07T14:29:31;3.45;;;2.10;;
80253;SDS011;69563;37.974;23.708;2023-05-07T14:31:57;5.22;;;2.20;;
80253;SDS011;69563;37.974;23.708;2023-05-07T14:34:22;3.33;;;2.00;;
80253;SDS011;69563;37.974;23.708;2023-05-07T14:36:48;3.95;;;2.40;;
80253;SDS011;69563;37.974;23.708;2023-05-07T14:39:14;3.92;;;2.20;;
80253;SDS011;69563;37.974;23.708;2023-05-07T14:41:40;4.32;;;2.28;;
80253;SDS011;69563;37.974;23.708;2023-05-07T14:44:05;4.53;;;2.33;;
80253;SDS011;69563;37.974;23.708;2023-05-07T14:46:31;4.22;;;2.13;;
80253;SDS011;69563;37.974;23.708;2023-05-07T14:48:57;4.82;;;2.25;;
80253;SDS011;69563;37.974;23.708;2023-05-07T14:51:23;3.45;;;1.90;;